sensor_id;sensor_type;location;lat;lon;timestamp;pressure;altitude;pressure_sealevel;temperature;humidity
3697;BME280;60662;48.810;8.872;2022-08-02T06:41:41;96816.50;;;20.58;64.72
3697;BME280;60662;48.810;8.872;2022-08-02T06:42:51;96821.66;;;20.38;64.91
3697;BME280;60662;48.810;8.872;2022-08-02T06:44:01;96826.53;;;20.22;65.83
3697;BME280;60662;48.810;8.872;2022-08-02T06:45:23;96824.13;;;20.51;65.20
3697;BME280;60662;48.810;8.872;2022-08-02T06:46:25;96827.56;;;20.75;64.07
3697;BME280;60662;48.810;8.872;2022-08-02T06:47:46;96825.19;;;20.71;63.85
3697;BME280;60662;48.810;8.872;2022-08-02T06:48:48;96821.75;;;20.81;63.58
3697;BME280;60662;48.810;8.872;2022-08-02T06:49:49;96825.31;;;20.91;63.30
3697;BME280;60662;48.810;8.872;2022-08-02T07:13:05;96841.97;;;22.48;58.92
3697;BME280;60662;48.810;8.872;2022-08-02T07:14:06;96837.66;;;22.66;58.35
3697;BME280;60662;48.810;8.872;2022-08-02T07:15:08;96835.25;;;22.54;58.07
3697;BME280;60662;48.810;8.872;2022-08-02T07:16:10;96832.50;;;21.64;59.77
3697;BME280;60662;48.810;8.872;2022-08-02T07:17:12;96833.16;;;21.14;61.50
3697;BME280;60662;48.810;8.872;2022-08-02T07:18:13;96832.69;;;21.51;61.16
3697;BME280;60662;48.810;8.872;2022-08-02T07:19:15;96834.19;;;21.65;60.22
3697;BME280;60662;48.810;8.872;2022-08-02T07:20:17;96834.81;;;21.88;59.87
3697;BME280;60662;48.810;8.872;2022-08-02T07:21:19;96832.06;;;22.50;58.19
3697;BME280;60662;48.810;8.872;2022-08-02T07:22:40;96834.41;;;22.53;57.71
3697;BME280;60662;48.810;8.872;2022-08-02T07:43:47;96866.38;;;23.22;56.37
3697;BME280;60662;48.810;8.872;2022-08-02T07:44:48;96868.44;;;23.08;56.72
3697;BME280;60662;48.810;8.872;2022-08-02T07:45:50;96865.09;;;23.36;55.60
3697;BME280;60662;48.810;8.872;2022-08-02T07:47:01;96854.38;;;23.55;55.02
3697;BME280;60662;48.810;8.872;2022-08-02T07:48:02;96861.50;;;23.64;54.82
3697;BME280;60662;48.810;8.872;2022-08-02T07:49:04;96856.19;;;23.64;55.00
3697;BME280;60662;48.810;8.872;2022-08-02T07:50:07;96868.56;;;23.56;54.86
3697;BME280;60662;48.810;8.872;2022-08-02T07:51:09;96859.53;;;23.67;54.68
3697;BME280;60662;48.810;8.872;2022-08-02T07:52:17;96857.97;;;23.74;54.25
3697;BME280;60662;48.810;8.872;2022-08-02T07:53:18;96859.25;;;23.70;54.14
3697;BME280;60662;48.810;8.872;2022-08-02T08:10:06;96861.44;;;24.68;51.65
3697;BME280;60662;48.810;8.872;2022-08-02T08:11:07;96864.34;;;24.74;51.28
3697;BME280;60662;48.810;8.872;2022-08-02T08:12:10;96856.31;;;24.56;51.36
3697;BME280;60662;48.810;8.872;2022-08-02T08:13:13;96855.00;;;24.60;51.53
3697;BME280;60662;48.810;8.872;2022-08-02T08:14:14;96858.31;;;25.08;51.06
3697;BME280;60662;48.810;8.872;2022-08-02T08:15:17;96853.97;;;25.34;50.41
3697;BME280;60662;48.810;8.872;2022-08-02T08:16:18;96852.34;;;25.59;49.67
3697;BME280;60662;48.810;8.872;2022-08-02T08:17:20;96854.66;;;25.54;49.30
3697;BME280;60662;48.810;8.872;2022-08-02T08:18:21;96850.19;;;25.63;49.23
3697;BME280;60662;48.810;8.872;2022-08-02T08:19:23;96849.16;;;25.55;49.16
3697;BME280;60662;48.810;8.872;2022-08-02T08:20:44;96858.34;;;25.87;48.95
3697;BME280;60662;48.810;8.872;2022-08-02T08:21:46;96862.06;;;25.60;48.73
3697;BME280;60662;48.810;8.872;2022-08-02T08:22:47;96859.63;;;25.75;48.27
3697;BME280;60662;48.810;8.872;2022-08-02T08:23:49;96859.38;;;25.95;48.04
3697;BME280;60662;48.810;8.872;2022-08-02T08:24:50;96857.44;;;25.70;48.33
3697;BME280;60662;48.810;8.872;2022-08-02T08:25:52;96861.53;;;24.94;49.93
3697;BME280;60662;48.810;8.872;2022-08-02T08:26:54;96857.16;;;25.11;49.61
3697;BME280;60662;48.810;8.872;2022-08-02T08:27:55;96854.16;;;25.32;49.00
3697;BME280;60662;48.810;8.872;2022-08-02T08:28:57;96855.59;;;25.26;49.22
3697;BME280;60662;48.810;8.872;2022-08-02T08:49:24;96845.28;;;26.19;44.38
3697;BME280;60662;48.810;8.872;2022-08-02T08:50:29;96844.66;;;25.12;47.33
3697;BME280;60662;48.810;8.872;2022-08-02T08:51:37;96841.19;;;25.37;47.15
3697;BME280;60662;48.810;8.872;2022-08-02T08:53:06;96840.06;;;26.09;45.97
3697;BME280;60662;48.810;8.872;2022-08-02T08:54:15;96847.28;;;25.82;46.00
3697;BME280;60662;48.810;8.872;2022-08-02T08:55:17;96843.34;;;25.95;46.09
3697;BME280;60662;48.810;8.872;2022-08-02T08:56:22;96845.69;;;25.63;46.72
3697;BME280;60662;48.810;8.872;2022-08-02T08:57:24;96843.78;;;26.08;46.48
3697;BME280;60662;48.810;8.872;2022-08-02T08:58:26;96847.25;;;26.60;45.21
3697;BME280;60662;48.810;8.872;2022-08-02T08:59:27;96845.63;;;27.08;44.58
3697;BME280;60662;48.810;8.872;2022-08-02T09:00:31;96850.13;;;27.32;43.49
3697;BME280;60662;48.810;8.872;2022-08-02T09:01:33;96844.97;;;26.98;43.57
3697;BME280;60662;48.810;8.872;2022-08-02T09:02:51;96841.91;;;26.68;45.13
3697;BME280;60662;48.810;8.872;2022-08-02T09:03:53;96838.28;;;26.94;44.42
3697;BME280;60662;48.810;8.872;2022-08-02T09:04:55;96843.97;;;26.91;44.85
3697;BME280;60662;48.810;8.872;2022-08-02T09:05:57;96833.72;;;26.69;44.87
3697;BME280;60662;48.810;8.872;2022-08-02T09:06:58;96843.91;;;25.46;47.18
3697;BME280;60662;48.810;8.872;2022-08-02T09:08:00;96837.13;;;25.33;47.46
3697;BME280;60662;48.810;8.872;2022-08-02T09:09:01;96847.19;;;25.66;46.87
3697;BME280;60662;48.810;8.872;2022-08-02T09:11:32;96830.94;;;26.28;45.12
3697;BME280;60662;48.810;8.872;2022-08-02T09:12:34;96834.19;;;26.05;46.14
3697;BME280;60662;48.810;8.872;2022-08-02T09:13:35;96832.09;;;26.93;44.52
3697;BME280;60662;48.810;8.872;2022-08-02T09:14:46;96829.69;;;27.64;43.27
3697;BME280;60662;48.810;8.872;2022-08-02T09:15:54;96834.72;;;27.59;42.54
3697;BME280;60662;48.810;8.872;2022-08-02T09:17:08;96827.41;;;27.93;42.34
3697;BME280;60662;48.810;8.872;2022-08-02T09:18:10;96823.09;;;27.75;42.64
3697;BME280;60662;48.810;8.872;2022-08-02T09:19:21;96833.06;;;26.84;43.34
3697;BME280;60662;48.810;8.872;2022-08-02T09:20:23;96829.78;;;26.31;45.30
3697;BME280;60662;48.810;8.872;2022-08-02T09:21:35;96838.59;;;26.74;44.46
3697;BME280;60662;48.810;8.872;2022-08-02T09:22:37;96837.56;;;27.66;43.25
3697;BME280;60662;48.810;8.872;2022-08-02T09:23:44;96839.31;;;27.90;42.10
3697;BME280;60662;48.810;8.872;2022-08-02T09:24:48;96837.50;;;28.30;41.51
3697;BME280;60662;48.810;8.872;2022-08-02T09:25:59;96831.59;;;28.90;39.69
3697;BME280;60662;48.810;8.872;2022-08-02T09:27:21;96834.69;;;28.78;40.27
3697;BME280;60662;48.810;8.872;2022-08-02T09:28:27;96832.88;;;28.79;39.99
3697;BME280;60662;48.810;8.872;2022-08-02T09:29:29;96838.38;;;28.23;41.32
3697;BME280;60662;48.810;8.872;2022-08-02T09:30:31;96833.16;;;28.84;40.39
3697;BME280;60662;48.810;8.872;2022-08-02T09:31:33;96835.69;;;29.24;39.33
3697;BME280;60662;48.810;8.872;2022-08-02T09:32:46;96829.91;;;26.88;43.76
3697;BME280;60662;48.810;8.872;2022-08-02T09:33:56;96835.19;;;27.63;42.50
3697;BME280;60662;48.810;8.872;2022-08-02T09:34:58;96829.56;;;27.41;42.15
3697;BME280;60662;48.810;8.872;2022-08-02T09:37:26;96836.59;;;27.17;43.24
3697;BME280;60662;48.810;8.872;2022-08-02T09:38:29;96831.56;;;27.31;42.48
3697;BME280;60662;48.810;8.872;2022-08-02T09:39:42;96834.72;;;28.15;41.52
3697;BME280;60662;48.810;8.872;2022-08-02T10:03:56;96845.97;;;28.11;41.03
3697;BME280;60662;48.810;8.872;2022-08-02T10:04:58;96834.56;;;28.48;40.63
3697;BME280;60662;48.810;8.872;2022-08-02T10:06:02;96836.56;;;28.15;41.07
3697;BME280;60662;48.810;8.872;2022-08-02T10:07:05;96831.41;;;27.97;41.01
3697;BME280;60662;48.810;8.872;2022-08-02T10:08:06;96828.78;;;27.89;41.09
3697;BME280;60662;48.810;8.872;2022-08-02T10:09:09;96819.47;;;27.51;41.43
3697;BME280;60662;48.810;8.872;2022-08-02T10:10:11;96828.00;;;27.55;41.75
3697;BME280;60662;48.810;8.872;2022-08-02T10:11:13;96823.16;;;27.59;41.58
3697;BME280;60662;48.810;8.872;2022-08-02T10:12:14;96828.50;;;27.67;42.00
3697;BME280;60662;48.810;8.872;2022-08-02T10:13:16;96833.09;;;27.98;41.73
3697;BME280;60662;48.810;8.872;2022-08-02T10:14:22;96827.22;;;28.02;41.47
3697;BME280;60662;48.810;8.872;2022-08-02T10:15:24;96829.03;;;28.02;41.19
3697;BME280;60662;48.810;8.872;2022-08-02T10:16:28;96821.59;;;27.73;41.71
3697;BME280;60662;48.810;8.872;2022-08-02T10:17:29;96822.50;;;27.57;41.70
3697;BME280;60662;48.810;8.872;2022-08-02T10:18:31;96820.09;;;27.70;42.11
3697;BME280;60662;48.810;8.872;2022-08-02T10:19:42;96821.84;;;27.21;43.01
3697;BME280;60662;48.810;8.872;2022-08-02T10:21:16;96822.28;;;26.43;44.03
3697;BME280;60662;48.810;8.872;2022-08-02T10:22:20;96812.50;;;27.01;43.43
3697;BME280;60662;48.810;8.872;2022-08-02T10:23:25;96821.31;;;27.34;42.97
3697;BME280;60662;48.810;8.872;2022-08-02T10:24:35;96817.66;;;27.52;42.53
3697;BME280;60662;48.810;8.872;2022-08-02T10:25:38;96822.28;;;27.66;41.94
3697;BME280;60662;48.810;8.872;2022-08-02T10:26:43;96818.47;;;28.00;41.80
3697;BME280;60662;48.810;8.872;2022-08-02T10:27:44;96820.28;;;28.48;41.03
3697;BME280;60662;48.810;8.872;2022-08-02T10:29:08;96815.47;;;29.13;39.34
3697;BME280;60662;48.810;8.872;2022-08-02T10:30:10;96817.63;;;28.16;40.49
3697;BME280;60662;48.810;8.872;2022-08-02T10:31:15;96807.13;;;27.01;42.37
3697;BME280;60662;48.810;8.872;2022-08-02T10:33:29;96815.50;;;28.66;40.61
3697;BME280;60662;48.810;8.872;2022-08-02T10:34:37;96807.75;;;29.10;38.39
3697;BME280;60662;48.810;8.872;2022-08-02T10:35:52;96813.78;;;29.50;38.11
3697;BME280;60662;48.810;8.872;2022-08-02T10:37:08;96813.63;;;29.81;35.95
3697;BME280;60662;48.810;8.872;2022-08-02T10:38:15;96799.22;;;29.59;36.59
3697;BME280;60662;48.810;8.872;2022-08-02T10:39:18;96801.38;;;29.11;37.98
3697;BME280;60662;48.810;8.872;2022-08-02T10:40:20;96810.03;;;29.89;37.06
3697;BME280;60662;48.810;8.872;2022-08-02T10:41:50;96805.38;;;30.71;36.42
3697;BME280;60662;48.810;8.872;2022-08-02T10:42:56;96799.41;;;30.98;35.75
3697;BME280;60662;48.810;8.872;2022-08-02T10:44:01;96801.09;;;30.77;36.21
3697;BME280;60662;48.810;8.872;2022-08-02T10:45:13;96808.13;;;31.21;35.15
3697;BME280;60662;48.810;8.872;2022-08-02T10:46:32;96800.97;;;31.64;34.92
3697;BME280;60662;48.810;8.872;2022-08-02T10:47:33;96804.59;;;31.78;33.93
3697;BME280;60662;48.810;8.872;2022-08-02T10:49:05;96804.41;;;31.22;35.05
3697;BME280;60662;48.810;8.872;2022-08-02T10:53:25;96795.34;;;31.94;33.74
3697;BME280;60662;48.810;8.872;2022-08-02T10:54:28;96797.16;;;32.28;33.32
3697;BME280;60662;48.810;8.872;2022-08-02T10:55:44;96800.16;;;31.63;34.43
3697;BME280;60662;48.810;8.872;2022-08-02T10:56:48;96793.72;;;30.64;35.45
3697;BME280;60662;48.810;8.872;2022-08-02T10:58:15;96797.38;;;30.05;36.22
3697;BME280;60662;48.810;8.872;2022-08-02T10:59:29;96797.09;;;30.15;36.23
3697;BME280;60662;48.810;8.872;2022-08-02T11:00:31;96792.47;;;30.45;35.87
3697;BME280;60662;48.810;8.872;2022-08-02T11:01:42;96795.38;;;30.28;36.17
3697;BME280;60662;48.810;8.872;2022-08-02T11:02:45;96784.16;;;30.25;35.84
3697;BME280;60662;48.810;8.872;2022-08-02T11:03:57;96783.16;;;30.11;36.37
3697;BME280;60662;48.810;8.872;2022-08-02T11:05:00;96794.75;;;30.11;36.43
3697;BME280;60662;48.810;8.872;2022-08-02T11:06:13;96791.16;;;30.04;35.84
3697;BME280;60662;48.810;8.872;2022-08-02T11:07:35;96792.00;;;30.05;35.98
3697;BME280;60662;48.810;8.872;2022-08-02T11:08:38;96789.22;;;29.83;35.92
3697;BME280;60662;48.810;8.872;2022-08-02T11:09:41;96788.84;;;29.71;36.21
3697;BME280;60662;48.810;8.872;2022-08-02T11:10:43;96791.44;;;29.79;36.54
3697;BME280;60662;48.810;8.872;2022-08-02T11:12:10;96789.75;;;29.63;36.54
3697;BME280;60662;48.810;8.872;2022-08-02T11:13:16;96791.88;;;29.53;37.36
3697;BME280;60662;48.810;8.872;2022-08-02T11:14:18;96782.88;;;29.61;37.15
3697;BME280;60662;48.810;8.872;2022-08-02T11:15:19;96783.56;;;29.63;36.73
3697;BME280;60662;48.810;8.872;2022-08-02T11:16:21;96782.88;;;29.61;36.88
3697;BME280;60662;48.810;8.872;2022-08-02T11:17:22;96776.88;;;29.59;36.57
3697;BME280;60662;48.810;8.872;2022-08-02T11:21:27;96778.16;;;30.88;34.79
3697;BME280;60662;48.810;8.872;2022-08-02T11:22:29;96784.94;;;31.27;33.55
3697;BME280;60662;48.810;8.872;2022-08-02T11:23:38;96783.50;;;30.81;34.48
3697;BME280;60662;48.810;8.872;2022-08-02T11:24:46;96777.22;;;30.74;34.34
3697;BME280;60662;48.810;8.872;2022-08-02T11:25:47;96779.59;;;30.25;34.27
3697;BME280;60662;48.810;8.872;2022-08-02T11:27:19;96774.09;;;29.67;35.13
3697;BME280;60662;48.810;8.872;2022-08-02T11:28:23;96774.81;;;28.93;36.69
3697;BME280;60662;48.810;8.872;2022-08-02T11:30:39;96773.69;;;30.15;35.10
3697;BME280;60662;48.810;8.872;2022-08-02T11:31:42;96772.41;;;30.91;34.29
3697;BME280;60662;48.810;8.872;2022-08-02T11:32:44;96776.09;;;31.40;33.70
3697;BME280;60662;48.810;8.872;2022-08-02T11:33:47;96780.38;;;31.98;33.28
3697;BME280;60662;48.810;8.872;2022-08-02T11:34:52;96776.91;;;32.04;32.80
3697;BME280;60662;48.810;8.872;2022-08-02T11:36:00;96769.59;;;30.41;35.23
3697;BME280;60662;48.810;8.872;2022-08-02T11:37:02;96772.19;;;30.92;34.74
3697;BME280;60662;48.810;8.872;2022-08-02T11:38:18;96773.47;;;31.18;33.74
3697;BME280;60662;48.810;8.872;2022-08-02T11:39:21;96764.03;;;30.21;35.48
3697;BME280;60662;48.810;8.872;2022-08-02T11:40:23;96777.81;;;31.48;34.38
3697;BME280;60662;48.810;8.872;2022-08-02T11:41:32;96764.72;;;28.95;36.78
3697;BME280;60662;48.810;8.872;2022-08-02T11:42:47;96757.84;;;28.92;37.67
3697;BME280;60662;48.810;8.872;2022-08-02T11:43:54;96767.13;;;28.12;38.09
3697;BME280;60662;48.810;8.872;2022-08-02T11:44:56;96773.34;;;28.67;37.26
3697;BME280;60662;48.810;8.872;2022-08-02T11:46:02;96768.41;;;29.47;36.07
3697;BME280;60662;48.810;8.872;2022-08-02T11:47:04;96760.53;;;29.45;35.86
3697;BME280;60662;48.810;8.872;2022-08-02T11:48:07;96751.72;;;30.33;34.69
3697;BME280;60662;48.810;8.872;2022-08-02T11:49:17;96761.91;;;29.86;34.79
3697;BME280;60662;48.810;8.872;2022-08-02T11:50:20;96757.28;;;29.95;35.23
3697;BME280;60662;48.810;8.872;2022-08-02T11:51:30;96755.66;;;30.74;33.86
3697;BME280;60662;48.810;8.872;2022-08-02T11:52:33;96757.94;;;30.70;34.24
3697;BME280;60662;48.810;8.872;2022-08-02T11:53:47;96761.91;;;29.26;35.70
3697;BME280;60662;48.810;8.872;2022-08-02T11:54:48;96757.81;;;30.05;34.90
3697;BME280;60662;48.810;8.872;2022-08-02T11:55:55;96758.47;;;30.44;34.13
3697;BME280;60662;48.810;8.872;2022-08-02T11:57:21;96760.16;;;30.08;34.63
3697;BME280;60662;48.810;8.872;2022-08-02T11:58:22;96757.59;;;30.43;33.87
3697;BME280;60662;48.810;8.872;2022-08-02T11:59:24;96754.91;;;29.55;35.32
3697;BME280;60662;48.810;8.872;2022-08-02T12:00:25;96762.44;;;29.07;35.71
3697;BME280;60662;48.810;8.872;2022-08-02T12:01:31;96729.53;;;28.43;36.02
3697;BME280;60662;48.810;8.872;2022-08-02T12:02:46;96762.88;;;29.93;33.93
3697;BME280;60662;48.810;8.872;2022-08-02T12:03:48;96759.13;;;30.89;32.65
3697;BME280;60662;48.810;8.872;2022-08-02T12:04:58;96763.38;;;31.62;31.88
3697;BME280;60662;48.810;8.872;2022-08-02T12:06:00;96770.69;;;32.79;30.30
3697;BME280;60662;48.810;8.872;2022-08-02T12:07:10;96765.91;;;33.41;29.63
3697;BME280;60662;48.810;8.872;2022-08-02T12:08:15;96768.19;;;33.37;29.49
3697;BME280;60662;48.810;8.872;2022-08-02T12:09:22;96766.75;;;33.28;29.69
3697;BME280;60662;48.810;8.872;2022-08-02T12:10:24;96766.38;;;31.81;31.16
3697;BME280;60662;48.810;8.872;2022-08-02T12:11:25;96764.34;;;31.89;31.55
3697;BME280;60662;48.810;8.872;2022-08-02T12:12:48;96767.56;;;33.02;29.39
3697;BME280;60662;48.810;8.872;2022-08-02T12:13:52;96757.56;;;33.43;29.02
3697;BME280;60662;48.810;8.872;2022-08-02T12:14:57;96759.59;;;31.91;30.22
3697;BME280;60662;48.810;8.872;2022-08-02T12:15:59;96761.53;;;31.34;31.87
3697;BME280;60662;48.810;8.872;2022-08-02T12:17:24;96748.16;;;32.45;30.59
3697;BME280;60662;48.810;8.872;2022-08-02T12:18:48;96760.25;;;32.62;30.94
3697;BME280;60662;48.810;8.872;2022-08-02T12:20:09;96762.13;;;32.68;30.92
3697;BME280;60662;48.810;8.872;2022-08-02T12:21:25;96761.53;;;32.93;30.80
3697;BME280;60662;48.810;8.872;2022-08-02T12:22:27;96754.97;;;32.27;31.72
3697;BME280;60662;48.810;8.872;2022-08-02T12:23:29;96756.53;;;33.30;30.52
3697;BME280;60662;48.810;8.872;2022-08-02T12:24:30;96758.84;;;34.06;29.61
3697;BME280;60662;48.810;8.872;2022-08-02T12:25:32;96746.75;;;33.36;30.13
3697;BME280;60662;48.810;8.872;2022-08-02T12:26:46;96754.66;;;33.11;30.23
3697;BME280;60662;48.810;8.872;2022-08-02T12:27:48;96749.47;;;34.08;29.42
3697;BME280;60662;48.810;8.872;2022-08-02T12:28:55;96752.41;;;34.77;28.06
3697;BME280;60662;48.810;8.872;2022-08-02T12:30:08;96758.81;;;35.34;27.70
3697;BME280;60662;48.810;8.872;2022-08-02T12:31:11;96754.81;;;35.80;27.19
3697;BME280;60662;48.810;8.872;2022-08-02T12:32:23;96756.38;;;35.69;26.73
3697;BME280;60662;48.810;8.872;2022-08-02T12:33:27;96753.56;;;35.39;27.30
3697;BME280;60662;48.810;8.872;2022-08-02T12:34:30;96753.84;;;35.30;27.21
3697;BME280;60662;48.810;8.872;2022-08-02T12:35:32;96753.09;;;34.34;28.52
3697;BME280;60662;48.810;8.872;2022-08-02T12:36:34;96745.44;;;34.17;28.63
3697;BME280;60662;48.810;8.872;2022-08-02T12:37:42;96754.56;;;33.78;28.84
3697;BME280;60662;48.810;8.872;2022-08-02T12:38:55;96752.94;;;33.57;29.50
3697;BME280;60662;48.810;8.872;2022-08-02T12:39:57;96748.41;;;33.44;29.52
3697;BME280;60662;48.810;8.872;2022-08-02T12:41:11;96751.47;;;33.61;29.24
3697;BME280;60662;48.810;8.872;2022-08-02T12:42:47;96745.16;;;34.32;28.36
3697;BME280;60662;48.810;8.872;2022-08-02T12:43:51;96750.06;;;34.81;28.10
3697;BME280;60662;48.810;8.872;2022-08-02T12:44:57;96742.63;;;35.02;27.89
3697;BME280;60662;48.810;8.872;2022-08-02T12:45:59;96742.06;;;34.93;27.39
3697;BME280;60662;48.810;8.872;2022-08-02T12:47:04;96743.88;;;34.03;28.55
3697;BME280;60662;48.810;8.872;2022-08-02T12:48:06;96740.34;;;32.08;30.77
3697;BME280;60662;48.810;8.872;2022-08-02T12:49:17;96734.97;;;31.66;31.88
3697;BME280;60662;48.810;8.872;2022-08-02T12:50:28;96739.84;;;31.84;31.34
3697;BME280;60662;48.810;8.872;2022-08-02T12:51:35;96740.81;;;32.18;31.02
3697;BME280;60662;48.810;8.872;2022-08-02T12:53:10;96744.44;;;32.66;30.60
3697;BME280;60662;48.810;8.872;2022-08-02T12:54:17;96737.84;;;32.95;30.07
3697;BME280;60662;48.810;8.872;2022-08-02T12:55:22;96739.84;;;32.53;30.27
3697;BME280;60662;48.810;8.872;2022-08-02T12:56:29;96741.13;;;31.53;31.52
3697;BME280;60662;48.810;8.872;2022-08-02T12:57:30;96730.63;;;31.65;32.09
3697;BME280;60662;48.810;8.872;2022-08-02T12:58:48;96715.34;;;33.35;29.42
3697;BME280;60662;48.810;8.872;2022-08-02T12:59:52;96734.28;;;30.72;32.37
3697;BME280;60662;48.810;8.872;2022-08-02T13:00:57;96725.47;;;30.85;32.31
3697;BME280;60662;48.810;8.872;2022-08-02T13:02:07;96730.38;;;31.25;31.93
3697;BME280;60662;48.810;8.872;2022-08-02T13:03:11;96723.41;;;32.41;30.12
3697;BME280;60662;48.810;8.872;2022-08-02T13:04:32;96720.56;;;32.76;29.92
3697;BME280;60662;48.810;8.872;2022-08-02T13:05:35;96730.28;;;32.44;30.29
3697;BME280;60662;48.810;8.872;2022-08-02T13:06:57;96723.88;;;32.65;29.72
3697;BME280;60662;48.810;8.872;2022-08-02T13:07:58;96725.56;;;32.93;29.38
3697;BME280;60662;48.810;8.872;2022-08-02T13:09:00;96724.91;;;32.57;29.80
3697;BME280;60662;48.810;8.872;2022-08-02T13:10:02;96737.38;;;33.45;29.23
3697;BME280;60662;48.810;8.872;2022-08-02T13:11:04;96707.06;;;33.89;28.17
3697;BME280;60662;48.810;8.872;2022-08-02T13:12:06;96721.47;;;33.69;28.26
3697;BME280;60662;48.810;8.872;2022-08-02T13:13:08;96724.19;;;33.69;28.13
3697;BME280;60662;48.810;8.872;2022-08-02T13:14:11;96724.88;;;33.24;28.54
3697;BME280;60662;48.810;8.872;2022-08-02T13:15:13;96729.78;;;33.74;27.97
3697;BME280;60662;48.810;8.872;2022-08-02T13:16:34;96722.00;;;33.26;28.37
3697;BME280;60662;48.810;8.872;2022-08-02T13:17:36;96721.38;;;32.83;29.15
3697;BME280;60662;48.810;8.872;2022-08-02T13:18:37;96721.38;;;32.83;29.24
3697;BME280;60662;48.810;8.872;2022-08-02T13:19:39;96728.22;;;32.59;29.72
3697;BME280;60662;48.810;8.872;2022-08-02T13:20:42;96710.91;;;31.65;31.29
3697;BME280;60662;48.810;8.872;2022-08-02T13:21:46;96722.25;;;31.60;31.83
3697;BME280;60662;48.810;8.872;2022-08-02T13:23:08;96719.00;;;32.20;30.86
3697;BME280;60662;48.810;8.872;2022-08-02T13:24:21;96722.00;;;32.52;30.77
3697;BME280;60662;48.810;8.872;2022-08-02T13:25:41;96720.75;;;32.95;30.23
3697;BME280;60662;48.810;8.872;2022-08-02T13:26:43;96722.19;;;33.51;29.16
3697;BME280;60662;48.810;8.872;2022-08-02T13:27:45;96718.31;;;33.79;29.23
3697;BME280;60662;48.810;8.872;2022-08-02T13:28:46;96721.66;;;34.26;28.22
3697;BME280;60662;48.810;8.872;2022-08-02T13:29:49;96718.88;;;34.40;28.49
3697;BME280;60662;48.810;8.872;2022-08-02T13:30:52;96717.94;;;34.85;27.77
3697;BME280;60662;48.810;8.872;2022-08-02T13:31:53;96713.66;;;35.02;27.48
3697;BME280;60662;48.810;8.872;2022-08-02T13:32:55;96712.69;;;35.15;27.01
3697;BME280;60662;48.810;8.872;2022-08-02T13:34:02;96708.88;;;35.41;26.73
3697;BME280;60662;48.810;8.872;2022-08-02T13:35:04;96712.69;;;35.34;26.41
3697;BME280;60662;48.810;8.872;2022-08-02T13:36:05;96711.75;;;35.84;26.22
3697;BME280;60662;48.810;8.872;2022-08-02T13:37:09;96721.38;;;35.24;26.40
3697;BME280;60662;48.810;8.872;2022-08-02T13:38:11;96718.22;;;35.64;26.18
3697;BME280;60662;48.810;8.872;2022-08-02T13:39:12;96716.78;;;35.80;25.89
3697;BME280;60662;48.810;8.872;2022-08-02T13:40:13;96711.59;;;35.78;26.11
3697;BME280;60662;48.810;8.872;2022-08-02T13:41:23;96711.06;;;35.33;26.19
3697;BME280;60662;48.810;8.872;2022-08-02T13:42:24;96715.91;;;35.49;25.88
3697;BME280;60662;48.810;8.872;2022-08-02T13:43:26;96713.75;;;35.33;25.80
3697;BME280;60662;48.810;8.872;2022-08-02T13:44:50;96707.00;;;35.60;26.38
3697;BME280;60662;48.810;8.872;2022-08-02T13:45:51;96706.78;;;35.43;26.44
3697;BME280;60662;48.810;8.872;2022-08-02T13:46:53;96706.06;;;35.85;26.08
3697;BME280;60662;48.810;8.872;2022-08-02T13:47:54;96703.44;;;34.97;26.25
3697;BME280;60662;48.810;8.872;2022-08-02T13:49:05;96709.72;;;35.42;26.24
3697;BME280;60662;48.810;8.872;2022-08-02T13:50:07;96705.09;;;35.42;25.84
3697;BME280;60662;48.810;8.872;2022-08-02T13:51:08;96696.66;;;34.88;26.30
3697;BME280;60662;48.810;8.872;2022-08-02T13:52:15;96693.97;;;33.85;27.47
3697;BME280;60662;48.810;8.872;2022-08-02T13:53:17;96702.47;;;33.89;27.54
3697;BME280;60662;48.810;8.872;2022-08-02T13:54:19;96696.06;;;34.54;26.64
3697;BME280;60662;48.810;8.872;2022-08-02T13:55:20;96701.84;;;33.08;28.21
3697;BME280;60662;48.810;8.872;2022-08-02T13:56:22;96696.81;;;32.38;29.17
3697;BME280;60662;48.810;8.872;2022-08-02T13:57:36;96699.94;;;32.55;29.17
3697;BME280;60662;48.810;8.872;2022-08-02T13:58:37;96696.00;;;32.64;29.12
3697;BME280;60662;48.810;8.872;2022-08-02T13:59:39;96695.97;;;33.97;27.80
3697;BME280;60662;48.810;8.872;2022-08-02T14:00:59;96690.16;;;34.89;26.74
3697;BME280;60662;48.810;8.872;2022-08-02T14:02:04;96703.09;;;35.38;26.20
3697;BME280;60662;48.810;8.872;2022-08-02T14:03:06;96696.31;;;35.66;26.23
3697;BME280;60662;48.810;8.872;2022-08-02T14:04:12;96689.97;;;34.84;26.88
3697;BME280;60662;48.810;8.872;2022-08-02T14:05:14;96695.88;;;35.06;27.00
3697;BME280;60662;48.810;8.872;2022-08-02T14:06:17;96688.53;;;34.88;26.36
3697;BME280;60662;48.810;8.872;2022-08-02T14:07:18;96691.50;;;35.05;26.47
3697;BME280;60662;48.810;8.872;2022-08-02T14:08:20;96684.97;;;34.88;27.10
3697;BME280;60662;48.810;8.872;2022-08-02T14:09:23;96691.78;;;35.41;26.50
3697;BME280;60662;48.810;8.872;2022-08-02T14:10:25;96692.84;;;36.07;26.06
3697;BME280;60662;48.810;8.872;2022-08-02T14:11:30;96687.75;;;36.29;25.40
3697;BME280;60662;48.810;8.872;2022-08-02T14:12:32;96682.97;;;36.43;25.38
3697;BME280;60662;48.810;8.872;2022-08-02T14:13:33;96686.75;;;36.24;25.74
3697;BME280;60662;48.810;8.872;2022-08-02T14:14:36;96694.88;;;36.42;25.31
3697;BME280;60662;48.810;8.872;2022-08-02T14:15:38;96689.13;;;35.34;26.17
3697;BME280;60662;48.810;8.872;2022-08-02T14:16:39;96693.63;;;35.22;26.71
3697;BME280;60662;48.810;8.872;2022-08-02T14:17:41;96693.78;;;35.83;25.90
3697;BME280;60662;48.810;8.872;2022-08-02T14:18:43;96682.16;;;35.01;26.09
3697;BME280;60662;48.810;8.872;2022-08-02T14:19:44;96688.03;;;34.66;26.97
3697;BME280;60662;48.810;8.872;2022-08-02T14:20:46;96682.25;;;35.69;25.81
3697;BME280;60662;48.810;8.872;2022-08-02T14:21:48;96682.41;;;35.92;25.48
3697;BME280;60662;48.810;8.872;2022-08-02T14:22:49;96681.06;;;36.44;25.46
3697;BME280;60662;48.810;8.872;2022-08-02T14:23:51;96683.81;;;36.56;24.61
3697;BME280;60662;48.810;8.872;2022-08-02T14:24:53;96677.94;;;35.79;25.83
3697;BME280;60662;48.810;8.872;2022-08-02T14:25:54;96694.56;;;35.90;26.08
3697;BME280;60662;48.810;8.872;2022-08-02T14:26:56;96689.78;;;36.34;25.73
3697;BME280;60662;48.810;8.872;2022-08-02T14:27:57;96684.78;;;36.01;25.57